Flight Track Log - Related Links

Times and Time Zones

All times are in EDT time to prevent confusion due to time zone crossing. See the DAL1117 flight status page for this flight to view local times or setup timezone preferences in your user account.

Time Position Orientation Groundspeed Altitude Reporting Facility
EDT Latitude Longitude Course Direction KTS MPH feet Rate Location/Type
Sat 02:16:33 PM 44.9000 -93.2833 128° Southeast 205 236 2,100  Level Minneapolis TRACON
Sat 02:17:17 PM 44.8908 -93.3492 259° West 266 306 3,300 1,075 Climbing Minneapolis Center
Sat 02:18:19 PM 44.8642 -93.4494 249° West 294 338 4,000 1,016 Climbing Minneapolis Center
Sat 02:19:00 PM 44.5302 -92.6917 125° Southeast  Level Estimated
Sat 02:19:21 PM 44.7883 -93.4647 188° South 284 327 5,400  Level Minneapolis Center
Sat 02:20:00 PM 44.4419 -92.5602 121° Southeast  Level Estimated
Sat 02:20:22 PM 44.7144 -93.4408 167° South 290 334 8,300  Level Minneapolis Center
Sat 02:21:00 PM 44.3625 -92.4182 128° Southeast  Level FlightAware Approximate
Sat 02:21:24 PM 44.6756 -93.3397 118° Southeast 300 345 10,600  Level Minneapolis Center
Sat 02:22:26 PM 44.6214 -93.1947 118° Southeast 371 427 11,900 1,597 Climbing Minneapolis Center
Sat 02:23:28 PM 44.5703 -93.0556 117° Southeast 405 466 13,900 1,935 Climbing Minneapolis Center
Sat 02:24:30 PM 44.5167 -92.9119 118° Southeast 419 482 15,900 1,854 Climbing Minneapolis Center
Sat 02:25:31 PM 44.4600 -92.7622 118° Southeast 435 501 17,700 1,610 Climbing Minneapolis Center
Sat 02:26:33 PM 44.4017 -92.6103 118° Southeast 441 507 19,200 1,645 Climbing Minneapolis Center
Sat 02:27:35 PM 44.3289 -92.4150 117° Southeast 469 540 21,100 1,597 Climbing Minneapolis Center
Sat 02:28:37 PM 44.2594 -92.2575 122° Southeast 478 550 22,500 1,306 Climbing Minneapolis Center
Sat 02:29:39 PM 44.1889 -92.0961 121° Southeast 488 562 23,800 1,306 Climbing Minneapolis Center
Sat 02:30:41 PM 44.1161 -91.9347 122° Southeast 491 565 25,200 1,366 Climbing Minneapolis Center
Sat 02:31:42 PM 44.0233 -91.7814 130° Southeast 509 586 26,600 1,415 Climbing Minneapolis Center
Sat 02:32:44 PM 43.9242 -91.6356 133° Southeast 500 575 28,100 1,548 Climbing Minneapolis Center
Sat 02:33:46 PM 43.8306 -91.4992 134° Southeast 494 568 29,800 1,355 Climbing Minneapolis Center
Sat 02:34:48 PM 43.7369 -91.3614 133° Southeast 493 567 30,900 581 Climbing Minneapolis Center
Sat 02:35:50 PM 43.6436 -91.2244 133° Southeast 493 567 31,000 55 Climbing Minneapolis Center
Sat 02:36:37 PM 43.5681 -91.1181 134° Southeast 490 564 31,000  Level Chicago Center
Sat 02:37:39 PM 43.4558 -90.9533 133° Southeast 493 567 31,000  Level Chicago Center
Sat 02:38:41 PM 43.3622 -90.8189 134° Southeast 490 564 31,000  Level Chicago Center
Sat 02:39:43 PM 43.2694 -90.6833 133° Southeast 490 564 31,000  Level Chicago Center
Sat 02:40:44 PM 43.1756 -90.5511 134° Southeast 487 560 31,000  Level Chicago Center
Sat 02:41:46 PM 43.0808 -90.4158 134° Southeast 492 566 31,000  Level Chicago Center
Sat 02:42:48 PM 42.9869 -90.2828 134° Southeast 489 563 31,000  Level Chicago Center
Sat 02:43:50 PM 42.8753 -90.1258 134° Southeast 483 556 31,000  Level Chicago Center
Sat 02:44:52 PM 42.7822 -89.9942 134° Southeast 483 556 31,000  Level Chicago Center
Sat 02:45:54 PM 42.6894 -89.8639 134° Southeast 481 554 31,000  Level Chicago Center
Sat 02:46:56 PM 42.5975 -89.7347 134° Southeast 479 551 31,000  Level Chicago Center
Sat 02:47:58 PM 42.5033 -89.6061 135° Southeast 482 555 31,000  Level Chicago Center
Sat 02:49:00 PM 42.3908 -89.4492 134° Southeast 487 560 31,000  Level Chicago Center
Sat 02:50:02 PM 42.2994 -89.3269 135° Southeast 479 551 31,000  Level Chicago Center
Sat 02:51:04 PM 42.2069 -89.1989 134° Southeast 478 550 31,000  Level Chicago Center
Sat 02:52:06 PM 42.1122 -89.0711 135° Southeast 481 554 31,000  Level Chicago Center
Sat 02:53:07 PM 42.0178 -88.9439 135° Southeast 482 555 31,000  Level Chicago Center
Sat 02:54:09 PM 41.9028 -88.7883 135° Southeast 490 564 31,000  Level Chicago Center
Sat 02:55:11 PM 41.8069 -88.6611 135° Southeast 488 562 31,000  Level Chicago Center
Sat 02:56:13 PM 41.7108 -88.5336 135° Southeast 489 563 31,000  Level Chicago Center
Sat 02:57:15 PM 41.6153 -88.4064 135° Southeast 488 562 31,000 -290 Level Chicago Center
Sat 02:58:17 PM 41.5139 -88.2908 140° Southeast 487 560 30,400 -864 Descending Chicago Center
Sat 02:59:20 PM 41.3769 -88.1831 149° Southeast 491 565 29,200 -1,073 Descending Chicago Center
Sat 03:00:20 PM 41.2650 -88.0931 149° Southeast 487 560 28,200 -1,033 Descending Chicago Center
Sat 03:01:22 PM 41.1494 -88.0008 149° Southeast 490 564 27,100 -919 Descending Chicago Center
Sat 03:02:24 PM 41.0358 -87.9103 149° Southeast 485 558 26,300 -919 Descending Chicago Center
Sat 03:03:26 PM 40.9014 -87.8056 150° Southeast 475 547 25,200 -919 Descending Chicago Center
Sat 03:04:28 PM 40.7903 -87.7183 149° Southeast 469 540 24,400 -677 Descending Chicago Center
Sat 03:05:30 PM 40.6822 -87.6300 148° Southeast 462 532 23,800 -537 Descending Chicago Center
Sat 03:06:31 PM 40.5983 -87.5092 132° Southeast 452 520 23,300 -976 Descending Chicago Center
Sat 03:07:33 PM 40.5153 -87.3900 132° Southeast 444 511 21,800 -2,032 Descending Chicago Center
Sat 03:08:35 PM 40.4311 -87.2650 131° Southeast 433 498 19,100 -2,419 Descending Chicago Center
Sat 03:09:37 PM 40.3533 -87.1528 132° Southeast 418 481 16,800 -2,293 Descending Chicago Center
Sat 03:10:38 PM 40.2800 -87.0419 131° Southeast 405 466 14,400 -1,854 Descending Chicago Center
Sat 03:11:40 PM 40.1925 -86.9142 132° Southeast 395 455 13,000 -1,258 Descending Chicago Center
Sat 03:12:42 PM 40.1211 -86.8103 132° Southeast 387 445 11,800 -1,129 Descending Chicago Center
Sat 03:13:21 PM 40.0767 -86.7464 132° Southeast 389 448 11,100 -475 Descending Indianapolis Center
Sat 03:14:23 PM 40.0069 -86.6453 132° Southeast 383 441 11,000 -97 Descending Indianapolis Center
Sat 03:15:25 PM 39.9375 -86.5444 132° Southeast 378 435 10,900 -439 Descending Indianapolis Center
Sat 03:16:26 PM 39.8739 -86.4508 132° Southeast 358 412 10,100 -1,366 Descending Indianapolis Center
Sat 03:17:28 PM 39.8056 -86.3497 131° Southeast 318 366 8,100 -1,403 Descending Indianapolis Center
Sat 03:18:30 PM 39.8283 -86.2583 72° East 289 333 7,200 -1,415 Descending Indianapolis Center
Sat 03:19:31 PM 39.8700 -86.1881 52° Northeast 262 302 5,200 -1,951 Descending Indianapolis Center
Sat 03:20:33 PM 39.8508 -86.1253 112° Southeast 244 281 3,200 -1,210 Descending Indianapolis Center
Sat 03:21:35 PM 39.8089 -86.1653 216° Southwest 210 242 2,700 -439 Descending Indianapolis Center
Sat 03:22:36 PM 39.7733 -86.2117 225° Southwest 193 222 2,300 -585 Descending Indianapolis Center
Sat 03:23:38 PM 39.7414 -86.2522 224° Southwest 175 201 1,500 -726 Descending Indianapolis Center
Sat 03:24:40 PM 39.7094 -86.2933 225° Southwest 159 183 800 -677 Descending Indianapolis Center

Login

Don't have an account? Register now (free) for customized features, flight alerts, and more!